sensor_id;sensor_type;location;lat;lon;timestamp;temperature;humidity
8338;DHT22;4206;48.634;9.516;2022-11-25T00:02:16;0.50;99.90
8338;DHT22;4206;48.634;9.516;2022-11-25T00:04:41;0.40;99.90
8338;DHT22;4206;48.634;9.516;2022-11-25T00:07:07;0.40;99.90
8338;DHT22;4206;48.634;9.516;2022-11-25T00:09:32;0.40;99.90
8338;DHT22;4206;48.634;9.516;2022-11-25T00:11:58;0.40;99.90
8338;DHT22;4206;48.634;9.516;2022-11-25T00:14:24;0.30;99.90
8338;DHT22;4206;48.634;9.516;2022-11-25T00:16:49;0.40;99.90
8338;DHT22;4206;48.634;9.516;2022-11-25T00:19:15;0.30;99.90
8338;DHT22;4206;48.634;9.516;2022-11-25T00:21:41;0.20;99.90
8338;DHT22;4206;48.634;9.516;2022-11-25T00:24:07;0.20;99.90
8338;DHT22;4206;48.634;9.516;2022-11-25T00:26:34;0.20;99.90
8338;DHT22;4206;48.634;9.516;2022-11-25T00:29:04;0.20;99.90
8338;DHT22;4206;48.634;9.516;2022-11-25T00:31:33;0.20;99.90
8338;DHT22;4206;48.634;9.516;2022-11-25T00:33:59;0.10;99.90
8338;DHT22;4206;48.634;9.516;2022-11-25T00:36:28;0.10;99.90
8338;DHT22;4206;48.634;9.516;2022-11-25T00:38:58;0.00;99.90
8338;DHT22;4206;48.634;9.516;2022-11-25T00:41:24;0.00;99.90
8338;DHT22;4206;48.634;9.516;2022-11-25T00:44:09;0.00;99.90
8338;DHT22;4206;48.634;9.516;2022-11-25T00:46:50;0.00;99.90
8338;DHT22;4206;48.634;9.516;2022-11-25T00:49:17;0.00;99.90
8338;DHT22;4206;48.634;9.516;2022-11-25T00:51:42;0.00;99.90
8338;DHT22;4206;48.634;9.516;2022-11-25T00:54:08;-0.10;99.90
8338;DHT22;4206;48.634;9.516;2022-11-25T00:56:33;-0.10;99.90
8338;DHT22;4206;48.634;9.516;2022-11-25T00:58:59;-0.10;99.90
8338;DHT22;4206;48.634;9.516;2022-11-25T01:01:25;-0.10;99.90
8338;DHT22;4206;48.634;9.516;2022-11-25T01:03:51;-0.20;99.90
8338;DHT22;4206;48.634;9.516;2022-11-25T01:06:17;-0.10;99.90
8338;DHT22;4206;48.634;9.516;2022-11-25T01:08:43;-0.10;99.90
8338;DHT22;4206;48.634;9.516;2022-11-25T01:11:12;-0.10;99.90
8338;DHT22;4206;48.634;9.516;2022-11-25T01:13:38;-0.10;99.90
8338;DHT22;4206;48.634;9.516;2022-11-25T01:18:51;-0.10;99.90
8338;DHT22;4206;48.634;9.516;2022-11-25T01:23:44;-0.10;99.90
8338;DHT22;4206;48.634;9.516;2022-11-25T01:26:13;-0.10;99.90
8338;DHT22;4206;48.634;9.516;2022-11-25T01:28:39;-0.10;99.90
8338;DHT22;4206;48.634;9.516;2022-11-25T01:31:11;-0.10;99.90
8338;DHT22;4206;48.634;9.516;2022-11-25T01:33:37;-0.10;99.90
8338;DHT22;4206;48.634;9.516;2022-11-25T01:36:05;-0.10;99.90
8338;DHT22;4206;48.634;9.516;2022-11-25T01:38:31;-0.10;99.90
8338;DHT22;4206;48.634;9.516;2022-11-25T01:40:58;-0.10;99.90
8338;DHT22;4206;48.634;9.516;2022-11-25T01:43:24;0.00;99.90
8338;DHT22;4206;48.634;9.516;2022-11-25T01:45:51;0.00;99.90
8338;DHT22;4206;48.634;9.516;2022-11-25T01:48:23;0.00;99.90
8338;DHT22;4206;48.634;9.516;2022-11-25T01:50:50;0.00;99.90
8338;DHT22;4206;48.634;9.516;2022-11-25T01:53:18;0.10;99.90
8338;DHT22;4206;48.634;9.516;2022-11-25T01:55:50;0.10;99.90
8338;DHT22;4206;48.634;9.516;2022-11-25T01:58:21;0.10;99.90
8338;DHT22;4206;48.634;9.516;2022-11-25T02:00:50;0.10;99.90
8338;DHT22;4206;48.634;9.516;2022-11-25T02:03:21;0.20;99.90
8338;DHT22;4206;48.634;9.516;2022-11-25T02:05:57;0.20;99.90
8338;DHT22;4206;48.634;9.516;2022-11-25T02:08:25;0.20;99.90
8338;DHT22;4206;48.634;9.516;2022-11-25T02:10:53;0.30;99.90
8338;DHT22;4206;48.634;9.516;2022-11-25T02:13:20;0.40;99.90
8338;DHT22;4206;48.634;9.516;2022-11-25T02:15:47;0.40;99.90
8338;DHT22;4206;48.634;9.516;2022-11-25T02:18:12;0.40;99.90
8338;DHT22;4206;48.634;9.516;2022-11-25T02:20:38;0.40;99.90
8338;DHT22;4206;48.634;9.516;2022-11-25T02:23:09;0.40;99.90
8338;DHT22;4206;48.634;9.516;2022-11-25T02:25:38;0.50;99.90
8338;DHT22;4206;48.634;9.516;2022-11-25T02:28:11;0.50;99.90
8338;DHT22;4206;48.634;9.516;2022-11-25T02:30:38;0.50;99.90
8338;DHT22;4206;48.634;9.516;2022-11-25T02:33:04;0.50;99.90
8338;DHT22;4206;48.634;9.516;2022-11-25T02:35:34;0.50;99.90
8338;DHT22;4206;48.634;9.516;2022-11-25T02:38:09;0.50;99.90
8338;DHT22;4206;48.634;9.516;2022-11-25T02:40:41;0.40;99.90
8338;DHT22;4206;48.634;9.516;2022-11-25T02:43:08;0.40;99.90
8338;DHT22;4206;48.634;9.516;2022-11-25T02:45:43;0.30;99.90
8338;DHT22;4206;48.634;9.516;2022-11-25T02:48:11;0.30;99.90
8338;DHT22;4206;48.634;9.516;2022-11-25T02:50:37;0.30;99.90
8338;DHT22;4206;48.634;9.516;2022-11-25T02:53:02;0.30;99.90
8338;DHT22;4206;48.634;9.516;2022-11-25T02:55:28;0.30;99.90
8338;DHT22;4206;48.634;9.516;2022-11-25T02:57:54;0.20;99.90
8338;DHT22;4206;48.634;9.516;2022-11-25T03:00:20;0.30;99.90
8338;DHT22;4206;48.634;9.516;2022-11-25T03:02:45;0.20;99.90
8338;DHT22;4206;48.634;9.516;2022-11-25T03:05:12;0.20;99.90
8338;DHT22;4206;48.634;9.516;2022-11-25T03:07:37;0.20;99.90
8338;DHT22;4206;48.634;9.516;2022-11-25T03:10:04;0.30;99.90
8338;DHT22;4206;48.634;9.516;2022-11-25T03:12:29;0.30;99.90
8338;DHT22;4206;48.634;9.516;2022-11-25T03:14:55;0.30;99.90
8338;DHT22;4206;48.634;9.516;2022-11-25T03:17:21;0.30;99.90
8338;DHT22;4206;48.634;9.516;2022-11-25T03:19:47;0.40;99.90
8338;DHT22;4206;48.634;9.516;2022-11-25T03:22:12;0.30;99.90
8338;DHT22;4206;48.634;9.516;2022-11-25T03:24:38;0.40;99.90
8338;DHT22;4206;48.634;9.516;2022-11-25T03:27:04;0.30;99.90
8338;DHT22;4206;48.634;9.516;2022-11-25T03:29:29;0.30;99.90
8338;DHT22;4206;48.634;9.516;2022-11-25T03:31:55;0.30;99.90
8338;DHT22;4206;48.634;9.516;2022-11-25T03:34:20;0.40;99.90
8338;DHT22;4206;48.634;9.516;2022-11-25T03:36:47;0.30;99.90
8338;DHT22;4206;48.634;9.516;2022-11-25T03:39:12;0.20;99.90
8338;DHT22;4206;48.634;9.516;2022-11-25T03:41:38;0.20;99.90
8338;DHT22;4206;48.634;9.516;2022-11-25T03:44:03;0.20;99.90
8338;DHT22;4206;48.634;9.516;2022-11-25T03:46:29;0.20;99.90
8338;DHT22;4206;48.634;9.516;2022-11-25T03:48:55;0.20;99.90
8338;DHT22;4206;48.634;9.516;2022-11-25T03:51:20;0.30;99.90
8338;DHT22;4206;48.634;9.516;2022-11-25T03:53:46;0.20;99.90
8338;DHT22;4206;48.634;9.516;2022-11-25T03:56:11;0.20;99.90
8338;DHT22;4206;48.634;9.516;2022-11-25T03:58:37;0.20;99.90
8338;DHT22;4206;48.634;9.516;2022-11-25T04:01:03;0.20;99.90
8338;DHT22;4206;48.634;9.516;2022-11-25T04:03:29;0.20;99.90
8338;DHT22;4206;48.634;9.516;2022-11-25T04:05:55;0.30;99.90
8338;DHT22;4206;48.634;9.516;2022-11-25T04:08:21;0.30;99.90
8338;DHT22;4206;48.634;9.516;2022-11-25T04:10:49;0.30;99.90
8338;DHT22;4206;48.634;9.516;2022-11-25T04:13:15;0.30;99.90
8338;DHT22;4206;48.634;9.516;2022-11-25T04:15:45;0.30;99.90
8338;DHT22;4206;48.634;9.516;2022-11-25T04:18:12;0.30;99.90
8338;DHT22;4206;48.634;9.516;2022-11-25T04:20:38;0.30;99.90
8338;DHT22;4206;48.634;9.516;2022-11-25T04:23:04;0.30;99.90
8338;DHT22;4206;48.634;9.516;2022-11-25T04:25:31;0.30;99.90
8338;DHT22;4206;48.634;9.516;2022-11-25T04:27:56;0.30;99.90
8338;DHT22;4206;48.634;9.516;2022-11-25T04:30:22;0.40;99.90
8338;DHT22;4206;48.634;9.516;2022-11-25T04:32:48;0.40;99.90
8338;DHT22;4206;48.634;9.516;2022-11-25T04:35:13;0.40;99.90
8338;DHT22;4206;48.634;9.516;2022-11-25T04:37:39;0.40;99.90
8338;DHT22;4206;48.634;9.516;2022-11-25T04:40:05;0.40;99.90
8338;DHT22;4206;48.634;9.516;2022-11-25T04:42:31;0.40;99.90
8338;DHT22;4206;48.634;9.516;2022-11-25T04:44:58;0.40;99.90
8338;DHT22;4206;48.634;9.516;2022-11-25T04:47:24;0.40;99.90
8338;DHT22;4206;48.634;9.516;2022-11-25T04:49:50;0.40;99.90
8338;DHT22;4206;48.634;9.516;2022-11-25T04:52:15;0.40;99.90
8338;DHT22;4206;48.634;9.516;2022-11-25T04:54:41;0.30;99.90
8338;DHT22;4206;48.634;9.516;2022-11-25T04:57:11;0.30;99.90
8338;DHT22;4206;48.634;9.516;2022-11-25T04:59:37;0.30;99.90
8338;DHT22;4206;48.634;9.516;2022-11-25T05:02:04;0.30;99.90
8338;DHT22;4206;48.634;9.516;2022-11-25T05:04:30;0.20;99.90
8338;DHT22;4206;48.634;9.516;2022-11-25T05:06:55;0.20;99.90
8338;DHT22;4206;48.634;9.516;2022-11-25T05:09:21;0.20;99.90
8338;DHT22;4206;48.634;9.516;2022-11-25T05:11:47;0.20;99.90
8338;DHT22;4206;48.634;9.516;2022-11-25T05:14:12;0.10;99.90
8338;DHT22;4206;48.634;9.516;2022-11-25T05:16:38;0.10;99.90
8338;DHT22;4206;48.634;9.516;2022-11-25T05:19:03;0.10;99.90
8338;DHT22;4206;48.634;9.516;2022-11-25T05:21:29;0.20;99.90
8338;DHT22;4206;48.634;9.516;2022-11-25T05:23:55;0.10;99.90
8338;DHT22;4206;48.634;9.516;2022-11-25T05:26:20;0.10;99.90
8338;DHT22;4206;48.634;9.516;2022-11-25T05:28:46;0.10;99.90
8338;DHT22;4206;48.634;9.516;2022-11-25T05:31:11;0.10;99.90
8338;DHT22;4206;48.634;9.516;2022-11-25T05:33:37;0.10;99.90
8338;DHT22;4206;48.634;9.516;2022-11-25T05:36:03;0.10;99.90
8338;DHT22;4206;48.634;9.516;2022-11-25T05:38:29;0.10;99.90
8338;DHT22;4206;48.634;9.516;2022-11-25T05:41:04;0.00;99.90
8338;DHT22;4206;48.634;9.516;2022-11-25T05:43:31;0.00;99.90
8338;DHT22;4206;48.634;9.516;2022-11-25T05:45:57;-0.10;99.90
8338;DHT22;4206;48.634;9.516;2022-11-25T05:48:23;-0.10;99.90
8338;DHT22;4206;48.634;9.516;2022-11-25T05:50:49;-0.20;99.90
8338;DHT22;4206;48.634;9.516;2022-11-25T05:53:14;-0.20;99.90
8338;DHT22;4206;48.634;9.516;2022-11-25T05:55:42;-0.20;99.90
8338;DHT22;4206;48.634;9.516;2022-11-25T05:58:08;-0.20;99.90
8338;DHT22;4206;48.634;9.516;2022-11-25T06:00:34;-0.30;99.90
8338;DHT22;4206;48.634;9.516;2022-11-25T06:03:00;-0.30;99.90
8338;DHT22;4206;48.634;9.516;2022-11-25T06:05:25;-0.30;99.90
8338;DHT22;4206;48.634;9.516;2022-11-25T06:07:51;-0.30;99.90
8338;DHT22;4206;48.634;9.516;2022-11-25T06:10:18;-0.30;99.90
8338;DHT22;4206;48.634;9.516;2022-11-25T06:12:44;-0.20;99.90
8338;DHT22;4206;48.634;9.516;2022-11-25T06:15:10;-0.20;99.90
8338;DHT22;4206;48.634;9.516;2022-11-25T06:17:36;-0.20;99.90
8338;DHT22;4206;48.634;9.516;2022-11-25T06:20:03;0.00;99.90
8338;DHT22;4206;48.634;9.516;2022-11-25T06:22:29;0.00;99.90
8338;DHT22;4206;48.634;9.516;2022-11-25T06:24:54;0.00;99.90
8338;DHT22;4206;48.634;9.516;2022-11-25T06:27:20;0.10;99.90
8338;DHT22;4206;48.634;9.516;2022-11-25T06:29:45;0.10;99.90
8338;DHT22;4206;48.634;9.516;2022-11-25T06:32:11;0.10;99.90
8338;DHT22;4206;48.634;9.516;2022-11-25T06:34:37;0.30;99.90
8338;DHT22;4206;48.634;9.516;2022-11-25T06:37:07;0.30;99.90
8338;DHT22;4206;48.634;9.516;2022-11-25T06:39:32;0.40;99.90
8338;DHT22;4206;48.634;9.516;2022-11-25T06:41:58;0.40;99.90
8338;DHT22;4206;48.634;9.516;2022-11-25T06:44:24;0.40;99.90
8338;DHT22;4206;48.634;9.516;2022-11-25T06:46:49;0.50;99.90
8338;DHT22;4206;48.634;9.516;2022-11-25T06:49:15;0.40;99.90
8338;DHT22;4206;48.634;9.516;2022-11-25T06:51:40;0.50;99.90
8338;DHT22;4206;48.634;9.516;2022-11-25T06:54:06;0.50;99.90
8338;DHT22;4206;48.634;9.516;2022-11-25T06:56:33;0.50;99.90
8338;DHT22;4206;48.634;9.516;2022-11-25T06:58:58;0.50;99.90
8338;DHT22;4206;48.634;9.516;2022-11-25T07:01:27;0.50;99.90
8338;DHT22;4206;48.634;9.516;2022-11-25T07:03:57;0.60;99.90
8338;DHT22;4206;48.634;9.516;2022-11-25T07:06:23;0.60;99.90
8338;DHT22;4206;48.634;9.516;2022-11-25T07:08:49;0.70;99.90
8338;DHT22;4206;48.634;9.516;2022-11-25T07:11:21;0.70;99.90
8338;DHT22;4206;48.634;9.516;2022-11-25T07:13:49;0.80;99.90
8338;DHT22;4206;48.634;9.516;2022-11-25T07:16:15;0.90;99.90
8338;DHT22;4206;48.634;9.516;2022-11-25T07:18:41;0.90;99.90
8338;DHT22;4206;48.634;9.516;2022-11-25T07:21:10;1.00;99.90
8338;DHT22;4206;48.634;9.516;2022-11-25T07:23:37;1.00;99.90
8338;DHT22;4206;48.634;9.516;2022-11-25T07:26:07;1.00;99.90
8338;DHT22;4206;48.634;9.516;2022-11-25T07:28:34;1.10;99.90
8338;DHT22;4206;48.634;9.516;2022-11-25T07:31:06;1.10;99.90
8338;DHT22;4206;48.634;9.516;2022-11-25T07:33:32;1.20;99.90
8338;DHT22;4206;48.634;9.516;2022-11-25T07:36:03;1.20;99.90
8338;DHT22;4206;48.634;9.516;2022-11-25T07:38:30;1.30;99.90
8338;DHT22;4206;48.634;9.516;2022-11-25T07:40:55;1.30;99.90
8338;DHT22;4206;48.634;9.516;2022-11-25T07:43:21;1.50;99.90
8338;DHT22;4206;48.634;9.516;2022-11-25T07:45:47;1.60;99.90
8338;DHT22;4206;48.634;9.516;2022-11-25T07:48:12;1.70;99.90
8338;DHT22;4206;48.634;9.516;2022-11-25T07:50:38;1.70;99.90
8338;DHT22;4206;48.634;9.516;2022-11-25T07:53:03;1.80;99.90
8338;DHT22;4206;48.634;9.516;2022-11-25T07:55:29;1.90;99.90
8338;DHT22;4206;48.634;9.516;2022-11-25T07:57:54;2.00;99.90
8338;DHT22;4206;48.634;9.516;2022-11-25T08:00:20;2.00;99.90
8338;DHT22;4206;48.634;9.516;2022-11-25T08:02:47;2.00;99.90
8338;DHT22;4206;48.634;9.516;2022-11-25T08:05:12;2.10;99.90
8338;DHT22;4206;48.634;9.516;2022-11-25T08:07:38;2.00;99.90
8338;DHT22;4206;48.634;9.516;2022-11-25T08:10:04;2.10;99.90
8338;DHT22;4206;48.634;9.516;2022-11-25T08:12:31;2.20;99.90
8338;DHT22;4206;48.634;9.516;2022-11-25T08:14:57;2.30;99.90
8338;DHT22;4206;48.634;9.516;2022-11-25T08:17:23;2.50;99.90
8338;DHT22;4206;48.634;9.516;2022-11-25T08:19:49;2.60;99.90
8338;DHT22;4206;48.634;9.516;2022-11-25T08:22:15;2.70;99.90
8338;DHT22;4206;48.634;9.516;2022-11-25T08:24:41;2.80;99.90
8338;DHT22;4206;48.634;9.516;2022-11-25T08:27:06;3.00;99.90
8338;DHT22;4206;48.634;9.516;2022-11-25T08:29:32;3.10;99.90
8338;DHT22;4206;48.634;9.516;2022-11-25T08:31:57;3.20;99.90
8338;DHT22;4206;48.634;9.516;2022-11-25T08:34:23;3.20;99.90
8338;DHT22;4206;48.634;9.516;2022-11-25T08:36:50;3.50;99.90
8338;DHT22;4206;48.634;9.516;2022-11-25T08:39:18;3.50;99.90
8338;DHT22;4206;48.634;9.516;2022-11-25T08:41:44;3.80;99.90
8338;DHT22;4206;48.634;9.516;2022-11-25T08:44:10;3.80;99.90
8338;DHT22;4206;48.634;9.516;2022-11-25T08:46:39;3.90;99.90
8338;DHT22;4206;48.634;9.516;2022-11-25T08:49:06;3.80;99.90
8338;DHT22;4206;48.634;9.516;2022-11-25T08:51:35;3.80;99.90
8338;DHT22;4206;48.634;9.516;2022-11-25T08:54:01;3.80;99.90
8338;DHT22;4206;48.634;9.516;2022-11-25T08:56:28;3.70;99.90
8338;DHT22;4206;48.634;9.516;2022-11-25T08:58:55;3.70;99.90
8338;DHT22;4206;48.634;9.516;2022-11-25T09:01:21;3.80;99.90
8338;DHT22;4206;48.634;9.516;2022-11-25T09:03:48;3.90;99.90
8338;DHT22;4206;48.634;9.516;2022-11-25T09:06:15;4.00;99.90
8338;DHT22;4206;48.634;9.516;2022-11-25T09:08:42;4.30;99.90
8338;DHT22;4206;48.634;9.516;2022-11-25T09:11:09;4.40;99.90
8338;DHT22;4206;48.634;9.516;2022-11-25T09:13:35;4.50;99.90
8338;DHT22;4206;48.634;9.516;2022-11-25T09:16:01;4.80;99.90
8338;DHT22;4206;48.634;9.516;2022-11-25T09:18:27;5.10;99.90
8338;DHT22;4206;48.634;9.516;2022-11-25T09:20:55;5.20;99.90
8338;DHT22;4206;48.634;9.516;2022-11-25T09:23:22;5.40;99.90
8338;DHT22;4206;48.634;9.516;2022-11-25T09:25:52;5.30;99.90
8338;DHT22;4206;48.634;9.516;2022-11-25T09:28:22;5.20;99.90
8338;DHT22;4206;48.634;9.516;2022-11-25T09:30:48;5.20;99.90
8338;DHT22;4206;48.634;9.516;2022-11-25T09:33:15;5.10;99.90
8338;DHT22;4206;48.634;9.516;2022-11-25T09:35:41;5.40;99.90
8338;DHT22;4206;48.634;9.516;2022-11-25T09:38:07;5.90;99.90
8338;DHT22;4206;48.634;9.516;2022-11-25T09:53:53;9.90;99.90
8338;DHT22;4206;48.634;9.516;2022-11-25T17:36:56;6.00;99.90
8338;DHT22;4206;48.634;9.516;2022-11-25T17:39:22;5.90;99.90
8338;DHT22;4206;48.634;9.516;2022-11-25T17:41:49;5.90;99.90
8338;DHT22;4206;48.634;9.516;2022-11-25T17:44:22;5.80;99.90
8338;DHT22;4206;48.634;9.516;2022-11-25T17:46:48;5.80;99.90
8338;DHT22;4206;48.634;9.516;2022-11-25T17:49:14;5.70;99.90
8338;DHT22;4206;48.634;9.516;2022-11-25T17:51:41;6.00;99.90
8338;DHT22;4206;48.634;9.516;2022-11-25T17:54:07;5.90;99.90
8338;DHT22;4206;48.634;9.516;2022-11-25T17:56:33;5.80;99.90
8338;DHT22;4206;48.634;9.516;2022-11-25T17:59:03;5.80;99.90
8338;DHT22;4206;48.634;9.516;2022-11-25T18:01:29;5.70;99.90
8338;DHT22;4206;48.634;9.516;2022-11-25T18:03:55;5.70;99.90
8338;DHT22;4206;48.634;9.516;2022-11-25T18:06:21;5.70;99.90
8338;DHT22;4206;48.634;9.516;2022-11-25T18:08:47;5.70;99.90
8338;DHT22;4206;48.634;9.516;2022-11-25T18:11:16;5.70;99.90
8338;DHT22;4206;48.634;9.516;2022-11-25T18:13:44;5.70;99.90
8338;DHT22;4206;48.634;9.516;2022-11-25T18:16:10;5.70;99.90
8338;DHT22;4206;48.634;9.516;2022-11-25T18:18:36;5.80;99.90
8338;DHT22;4206;48.634;9.516;2022-11-25T18:21:02;5.70;99.90
8338;DHT22;4206;48.634;9.516;2022-11-25T18:23:28;5.70;99.90
8338;DHT22;4206;48.634;9.516;2022-11-25T18:25:55;5.80;99.90
8338;DHT22;4206;48.634;9.516;2022-11-25T18:28:24;5.70;99.90
8338;DHT22;4206;48.634;9.516;2022-11-25T18:30:51;5.70;99.90
8338;DHT22;4206;48.634;9.516;2022-11-25T18:33:19;5.70;99.90
8338;DHT22;4206;48.634;9.516;2022-11-25T18:35:45;5.70;99.90
8338;DHT22;4206;48.634;9.516;2022-11-25T18:38:12;5.80;99.90
8338;DHT22;4206;48.634;9.516;2022-11-25T18:40:40;5.60;99.90
8338;DHT22;4206;48.634;9.516;2022-11-25T18:43:13;5.70;99.90
8338;DHT22;4206;48.634;9.516;2022-11-25T18:45:39;5.70;99.90
8338;DHT22;4206;48.634;9.516;2022-11-25T18:48:19;5.70;99.90
8338;DHT22;4206;48.634;9.516;2022-11-25T18:50:46;5.70;99.90
8338;DHT22;4206;48.634;9.516;2022-11-25T18:53:12;5.70;99.90
8338;DHT22;4206;48.634;9.516;2022-11-25T18:55:38;5.70;99.90
8338;DHT22;4206;48.634;9.516;2022-11-25T18:58:17;5.80;99.90
8338;DHT22;4206;48.634;9.516;2022-11-25T19:00:45;5.80;99.90
8338;DHT22;4206;48.634;9.516;2022-11-25T19:03:18;5.70;99.90
8338;DHT22;4206;48.634;9.516;2022-11-25T19:05:44;5.70;99.90
8338;DHT22;4206;48.634;9.516;2022-11-25T19:08:10;5.60;99.90
8338;DHT22;4206;48.634;9.516;2022-11-25T19:10:36;5.60;99.90
8338;DHT22;4206;48.634;9.516;2022-11-25T19:13:07;5.60;99.90
8338;DHT22;4206;48.634;9.516;2022-11-25T19:15:36;5.60;99.90
8338;DHT22;4206;48.634;9.516;2022-11-25T19:18:04;5.50;99.90
8338;DHT22;4206;48.634;9.516;2022-11-25T19:20:30;5.70;99.90
8338;DHT22;4206;48.634;9.516;2022-11-25T19:23:11;5.50;99.90
8338;DHT22;4206;48.634;9.516;2022-11-25T19:25:37;5.60;99.90
8338;DHT22;4206;48.634;9.516;2022-11-25T19:28:03;5.50;99.90
8338;DHT22;4206;48.634;9.516;2022-11-25T19:30:30;5.50;99.90
8338;DHT22;4206;48.634;9.516;2022-11-25T19:32:58;5.50;99.90
8338;DHT22;4206;48.634;9.516;2022-11-25T19:38:18;5.50;99.90
8338;DHT22;4206;48.634;9.516;2022-11-25T19:40:46;5.50;99.90
8338;DHT22;4206;48.634;9.516;2022-11-25T19:43:12;5.60;99.90
8338;DHT22;4206;48.634;9.516;2022-11-25T19:45:38;5.70;99.90
8338;DHT22;4206;48.634;9.516;2022-11-25T19:48:09;5.70;99.90
8338;DHT22;4206;48.634;9.516;2022-11-25T19:50:37;5.70;99.90
8338;DHT22;4206;48.634;9.516;2022-11-25T19:53:04;5.70;99.90
8338;DHT22;4206;48.634;9.516;2022-11-25T19:55:30;5.70;99.90
8338;DHT22;4206;48.634;9.516;2022-11-25T19:57:57;5.80;99.90
8338;DHT22;4206;48.634;9.516;2022-11-25T20:00:23;5.80;99.90
8338;DHT22;4206;48.634;9.516;2022-11-25T20:02:52;5.90;99.90
8338;DHT22;4206;48.634;9.516;2022-11-25T20:08:03;5.80;99.90
8338;DHT22;4206;48.634;9.516;2022-11-25T20:10:31;5.80;99.90
8338;DHT22;4206;48.634;9.516;2022-11-25T20:12:57;5.90;99.90
8338;DHT22;4206;48.634;9.516;2022-11-25T20:15:24;5.90;99.90
8338;DHT22;4206;48.634;9.516;2022-11-25T20:17:53;5.80;99.90
8338;DHT22;4206;48.634;9.516;2022-11-25T20:25:18;5.70;99.90
8338;DHT22;4206;48.634;9.516;2022-11-25T20:27:44;5.60;99.90
8338;DHT22;4206;48.634;9.516;2022-11-25T20:30:16;5.60;99.90
8338;DHT22;4206;48.634;9.516;2022-11-25T20:32:42;5.60;99.90
8338;DHT22;4206;48.634;9.516;2022-11-25T20:35:09;5.60;99.90
8338;DHT22;4206;48.634;9.516;2022-11-25T20:37:36;5.60;99.90
8338;DHT22;4206;48.634;9.516;2022-11-25T20:40:17;5.60;99.90
8338;DHT22;4206;48.634;9.516;2022-11-25T20:42:46;5.60;99.90
8338;DHT22;4206;48.634;9.516;2022-11-25T20:45:14;5.50;99.90
8338;DHT22;4206;48.634;9.516;2022-11-25T20:47:41;5.60;99.90
8338;DHT22;4206;48.634;9.516;2022-11-25T20:50:09;5.60;99.90
8338;DHT22;4206;48.634;9.516;2022-11-25T20:52:35;5.60;99.90
8338;DHT22;4206;48.634;9.516;2022-11-25T20:55:13;5.70;99.90
8338;DHT22;4206;48.634;9.516;2022-11-25T20:57:39;5.70;99.90
8338;DHT22;4206;48.634;9.516;2022-11-25T21:00:17;5.70;99.90
8338;DHT22;4206;48.634;9.516;2022-11-25T21:02:43;5.70;99.90
8338;DHT22;4206;48.634;9.516;2022-11-25T21:05:09;5.70;99.90
8338;DHT22;4206;48.634;9.516;2022-11-25T21:07:35;5.80;99.90
8338;DHT22;4206;48.634;9.516;2022-11-25T21:10:00;5.80;99.90
8338;DHT22;4206;48.634;9.516;2022-11-25T21:12:26;5.80;99.90
8338;DHT22;4206;48.634;9.516;2022-11-25T21:14:52;5.80;99.90
8338;DHT22;4206;48.634;9.516;2022-11-25T21:17:17;5.90;99.90
8338;DHT22;4206;48.634;9.516;2022-11-25T21:19:43;5.90;99.90
8338;DHT22;4206;48.634;9.516;2022-11-25T21:22:12;6.00;99.90
8338;DHT22;4206;48.634;9.516;2022-11-25T21:24:40;5.90;99.90
8338;DHT22;4206;48.634;9.516;2022-11-25T21:27:13;6.00;99.90
8338;DHT22;4206;48.634;9.516;2022-11-25T21:29:40;6.00;99.90
8338;DHT22;4206;48.634;9.516;2022-11-25T21:32:18;6.00;99.90
8338;DHT22;4206;48.634;9.516;2022-11-25T21:34:45;6.00;99.90
8338;DHT22;4206;48.634;9.516;2022-11-25T21:37:10;6.00;99.90
8338;DHT22;4206;48.634;9.516;2022-11-25T21:39:36;5.90;99.90
8338;DHT22;4206;48.634;9.516;2022-11-25T21:42:04;5.90;99.90
8338;DHT22;4206;48.634;9.516;2022-11-25T21:44:35;6.00;99.90
8338;DHT22;4206;48.634;9.516;2022-11-25T21:47:01;6.00;99.90
8338;DHT22;4206;48.634;9.516;2022-11-25T21:49:29;5.90;99.90
8338;DHT22;4206;48.634;9.516;2022-11-25T21:51:55;5.80;99.90
8338;DHT22;4206;48.634;9.516;2022-11-25T21:54:21;5.90;99.90
8338;DHT22;4206;48.634;9.516;2022-11-25T21:56:46;5.90;99.90
8338;DHT22;4206;48.634;9.516;2022-11-25T21:59:16;5.80;99.90
8338;DHT22;4206;48.634;9.516;2022-11-25T22:01:43;5.90;99.90
8338;DHT22;4206;48.634;9.516;2022-11-25T22:04:15;5.90;99.90
8338;DHT22;4206;48.634;9.516;2022-11-25T22:06:41;5.90;99.90
8338;DHT22;4206;48.634;9.516;2022-11-25T22:09:07;5.90;99.90
8338;DHT22;4206;48.634;9.516;2022-11-25T22:11:35;5.90;99.90
8338;DHT22;4206;48.634;9.516;2022-11-25T22:14:05;5.90;99.90
8338;DHT22;4206;48.634;9.516;2022-11-25T22:16:33;5.90;99.90
8338;DHT22;4206;48.634;9.516;2022-11-25T22:18:59;5.90;99.90
8338;DHT22;4206;48.634;9.516;2022-11-25T22:21:25;5.90;99.90
8338;DHT22;4206;48.634;9.516;2022-11-25T22:23:51;5.90;99.90
8338;DHT22;4206;48.634;9.516;2022-11-25T22:26:23;5.90;99.90
8338;DHT22;4206;48.634;9.516;2022-11-25T22:28:52;5.90;99.90
8338;DHT22;4206;48.634;9.516;2022-11-25T22:31:18;5.90;99.90
8338;DHT22;4206;48.634;9.516;2022-11-25T22:33:45;5.90;99.90
8338;DHT22;4206;48.634;9.516;2022-11-25T22:39:05;6.00;99.90
8338;DHT22;4206;48.634;9.516;2022-11-25T22:41:34;6.00;99.90
8338;DHT22;4206;48.634;9.516;2022-11-25T22:44:00;6.00;99.90
8338;DHT22;4206;48.634;9.516;2022-11-25T22:46:25;6.00;99.90
8338;DHT22;4206;48.634;9.516;2022-11-25T22:48:51;6.00;99.90
8338;DHT22;4206;48.634;9.516;2022-11-25T22:51:20;6.00;99.90
8338;DHT22;4206;48.634;9.516;2022-11-25T22:53:50;6.10;99.90
8338;DHT22;4206;48.634;9.516;2022-11-25T22:56:17;6.10;99.90
8338;DHT22;4206;48.634;9.516;2022-11-25T22:58:44;6.10;99.90
8338;DHT22;4206;48.634;9.516;2022-11-25T23:01:13;6.10;99.90
8338;DHT22;4206;48.634;9.516;2022-11-25T23:03:40;6.10;99.90
8338;DHT22;4206;48.634;9.516;2022-11-25T23:06:10;6.10;99.90
8338;DHT22;4206;48.634;9.516;2022-11-25T23:08:36;6.10;99.90
8338;DHT22;4206;48.634;9.516;2022-11-25T23:11:02;6.10;99.90
8338;DHT22;4206;48.634;9.516;2022-11-25T23:13:28;6.10;99.90
8338;DHT22;4206;48.634;9.516;2022-11-25T23:15:56;6.00;99.90
8338;DHT22;4206;48.634;9.516;2022-11-25T23:21:16;5.90;99.90
8338;DHT22;4206;48.634;9.516;2022-11-25T23:23:42;5.90;99.90
8338;DHT22;4206;48.634;9.516;2022-11-25T23:26:09;5.90;99.90
8338;DHT22;4206;48.634;9.516;2022-11-25T23:28:35;5.90;99.90
8338;DHT22;4206;48.634;9.516;2022-11-25T23:31:00;5.80;99.90
8338;DHT22;4206;48.634;9.516;2022-11-25T23:33:34;5.50;99.90
8338;DHT22;4206;48.634;9.516;2022-11-25T23:36:05;5.80;99.90
8338;DHT22;4206;48.634;9.516;2022-11-25T23:38:32;5.80;99.90
8338;DHT22;4206;48.634;9.516;2022-11-25T23:40:57;5.90;99.90
8338;DHT22;4206;48.634;9.516;2022-11-25T23:43:23;5.90;99.90
8338;DHT22;4206;48.634;9.516;2022-11-25T23:45:52;5.90;99.90
8338;DHT22;4206;48.634;9.516;2022-11-25T23:48:21;5.90;99.90
8338;DHT22;4206;48.634;9.516;2022-11-25T23:50:48;5.90;99.90
8338;DHT22;4206;48.634;9.516;2022-11-25T23:53:23;6.00;99.90
8338;DHT22;4206;48.634;9.516;2022-11-25T23:55:49;6.00;99.90
8338;DHT22;4206;48.634;9.516;2022-11-25T23:58:17;6.00;99.90
